createdAt,value
2019-01-26T00:00:58.110Z,284.50
2019-01-26T00:03:30.006Z,300.25
2019-01-26T00:06:01.573Z,294.75
2019-01-26T00:08:33.472Z,277.50
2019-01-26T00:11:05.363Z,274.50
2019-01-26T00:13:36.899Z,259.25
2019-01-26T00:16:08.295Z,304.00
2019-01-26T00:18:40.581Z,264.00
2019-01-26T00:21:11.861Z,284.50
2019-01-26T00:23:43.540Z,265.25
2019-01-26T00:26:14.833Z,288.00
2019-01-26T00:28:46.571Z,251.50
2019-01-26T00:31:19.909Z,291.00
2019-01-26T00:33:51.652Z,275.75
2019-01-26T00:36:23.268Z,274.50
2019-01-26T00:38:54.973Z,263.00
2019-01-26T00:41:26.499Z,252.50
2019-01-26T00:43:58.243Z,254.00
2019-01-26T00:46:29.675Z,271.75
2019-01-26T00:49:01.378Z,270.00
2019-01-26T00:51:32.697Z,247.25
2019-01-26T00:54:05.072Z,274.75
2019-01-26T00:56:36.789Z,264.25
2019-01-26T00:59:08.806Z,251.00
2019-01-26T01:01:40.458Z,297.25
2019-01-26T01:04:12.690Z,256.00
2019-01-26T01:06:44.009Z,260.50
2019-01-26T01:09:15.801Z,271.25
2019-01-26T01:11:47.251Z,242.50
2019-01-26T01:14:19.232Z,251.25
2019-01-26T01:16:50.471Z,252.25
2019-01-26T01:19:22.010Z,232.50
2019-01-26T01:21:53.653Z,237.25
2019-01-26T01:24:25.621Z,242.25
2019-01-26T01:26:57.088Z,262.50
2019-01-26T01:29:28.789Z,237.25
2019-01-26T01:32:00.341Z,243.00
2019-01-26T01:34:32.031Z,268.25
2019-01-26T01:37:03.805Z,225.00
2019-01-26T01:39:35.437Z,250.00
2019-01-26T01:42:07.202Z,260.00
2019-01-26T01:44:38.903Z,261.75
2019-01-26T01:47:10.341Z,252.75
2019-01-26T01:49:42.268Z,289.75
2019-01-26T01:52:13.700Z,287.00
2019-01-26T01:54:45.284Z,253.50
2019-01-26T01:57:16.881Z,266.25
2019-01-26T01:59:49.163Z,278.00
2019-01-26T02:02:20.720Z,267.00
2019-01-26T02:04:52.526Z,233.25
2019-01-26T02:07:23.812Z,290.25
2019-01-26T02:09:55.466Z,245.00
2019-01-26T02:12:27.058Z,229.50
2019-01-26T02:14:58.980Z,270.25
2019-01-26T02:17:30.710Z,294.00
2019-01-26T02:20:02.715Z,243.25
2019-01-26T02:22:34.792Z,265.25
2019-01-26T02:25:07.163Z,286.00
2019-01-26T02:27:38.587Z,255.25
2019-01-26T02:30:13.719Z,277.75
2019-01-26T02:32:44.974Z,245.50
2019-01-26T02:35:16.692Z,288.00
2019-01-26T02:37:48.551Z,253.25
2019-01-26T02:40:20.343Z,257.00
2019-01-26T02:42:51.710Z,250.00
2019-01-26T02:45:23.040Z,286.25
2019-01-26T02:47:54.692Z,237.00
2019-01-26T02:50:26.527Z,256.00
2019-01-26T02:52:58.224Z,289.00
2019-01-26T02:55:29.896Z,279.25
2019-01-26T02:58:01.299Z,301.50
2019-01-26T03:00:33.327Z,298.00
2019-01-26T03:03:05.159Z,295.25
2019-01-26T03:05:36.527Z,282.00
2019-01-26T03:08:08.433Z,275.00
2019-01-26T03:10:40.103Z,279.50
2019-01-26T03:13:11.593Z,255.50
2019-01-26T03:15:42.776Z,235.00
2019-01-26T03:18:14.112Z,258.25
2019-01-26T03:20:45.622Z,273.25
2019-01-26T03:23:18.399Z,273.75
2019-01-26T03:25:49.636Z,273.25
2019-01-26T03:28:21.230Z,289.75
2019-01-26T03:30:52.425Z,253.25
2019-01-26T03:33:24.425Z,267.25
2019-01-26T03:35:55.702Z,257.50
2019-01-26T03:38:27.948Z,255.75
2019-01-26T03:40:59.702Z,280.25
2019-01-26T03:43:31.455Z,274.50
2019-01-26T03:46:03.183Z,288.75
2019-01-26T03:48:34.617Z,258.75
2019-01-26T03:51:06.034Z,260.25
2019-01-26T03:53:37.441Z,266.00
2019-01-26T03:56:09.156Z,263.25
2019-01-26T03:58:40.568Z,280.00
2019-01-26T04:01:11.995Z,263.00
2019-01-26T04:03:43.404Z,234.75
2019-01-26T04:06:15.140Z,216.50
2019-01-26T04:08:47.005Z,226.75
2019-01-26T04:11:18.302Z,240.25
2019-01-26T04:13:49.750Z,239.00
2019-01-26T04:16:21.657Z,226.75
2019-01-26T04:18:53.764Z,210.00
2019-01-26T04:21:25.278Z,225.75
2019-01-26T04:23:57.343Z,233.50
2019-01-26T04:26:28.701Z,222.50
2019-01-26T04:29:00.321Z,231.25
2019-01-26T04:31:31.513Z,211.50
2019-01-26T04:34:03.049Z,197.75
2019-01-26T04:36:34.302Z,209.25
2019-01-26T04:39:09.002Z,210.50
2019-01-26T04:41:40.141Z,202.25
2019-01-26T04:44:11.948Z,219.75
2019-01-26T04:46:43.445Z,212.00
2019-01-26T04:49:15.055Z,201.20
2019-01-26T04:51:46.582Z,185.80
2019-01-26T04:54:18.478Z,181.20
2019-01-26T04:56:50.740Z,198.20
2019-01-26T04:59:22.405Z,188.20
2019-01-26T05:01:53.581Z,174.20
2019-01-26T05:04:25.566Z,177.20
2019-01-26T05:06:57.243Z,181.40
2019-01-26T05:09:28.796Z,183.60
2019-01-26T05:12:00.507Z,187.00
2019-01-26T05:14:32.568Z,156.80
2019-01-26T05:17:04.439Z,146.40
2019-01-26T05:19:37.227Z,182.00
2019-01-26T05:22:08.452Z,195.00
2019-01-26T05:24:40.222Z,150.60
2019-01-26T05:27:11.610Z,146.60
2019-01-26T05:29:43.467Z,177.40
2019-01-26T05:32:14.803Z,169.60
2019-01-26T05:34:46.796Z,134.00
2019-01-26T05:37:18.335Z,160.20
2019-01-26T05:39:49.956Z,163.60
2019-01-26T05:42:21.498Z,166.00
2019-01-26T05:44:53.130Z,155.40
2019-01-26T05:47:24.629Z,163.20
2019-01-26T05:49:56.392Z,163.20
2019-01-26T05:52:28.081Z,144.60
2019-01-26T05:54:59.935Z,154.20
2019-01-26T05:57:31.547Z,168.40
2019-01-26T06:00:02.971Z,160.00
2019-01-26T06:02:34.902Z,179.80
2019-01-26T06:05:06.733Z,159.80
2019-01-26T06:07:38.658Z,134.60
2019-01-26T06:10:10.313Z,170.20
2019-01-26T06:12:42.235Z,175.80
2019-01-26T06:15:13.693Z,170.20
2019-01-26T06:17:45.338Z,131.80
2019-01-26T06:20:17.662Z,166.40
2019-01-26T06:22:49.247Z,187.40
2019-01-26T06:25:21.000Z,184.80
2019-01-26T06:27:53.189Z,216.20
2019-01-26T06:30:26.210Z,151.00
2019-01-26T06:32:57.904Z,151.60
2019-01-26T06:35:29.695Z,167.20
2019-01-26T06:38:01.412Z,136.80
2019-01-26T06:40:32.958Z,153.60
2019-01-26T06:43:04.890Z,153.40
2019-01-26T06:45:36.405Z,136.00
2019-01-26T06:48:08.017Z,117.20
2019-01-26T06:50:39.905Z,131.40
2019-01-26T06:53:11.790Z,105.40
2019-01-26T06:55:43.373Z,132.60
2019-01-26T06:58:15.019Z,115.00
2019-01-26T07:00:46.847Z,130.20
2019-01-26T07:03:18.241Z,138.80
2019-01-26T07:06:02.793Z,138.80
2019-01-26T07:08:35.134Z,125.60
2019-01-26T07:11:06.787Z,118.40
2019-01-26T07:13:38.298Z,121.00
2019-01-26T07:16:10.280Z,117.20
2019-01-26T07:18:41.788Z,132.20
2019-01-26T07:21:13.510Z,114.80
2019-01-26T07:23:44.946Z,141.00
2019-01-26T07:26:16.605Z,134.80
2019-01-26T07:28:48.206Z,116.40
2019-01-26T07:31:19.887Z,110.80
2019-01-26T07:33:52.140Z,112.00
2019-01-26T07:36:23.431Z,105.80
2019-01-26T07:38:55.031Z,106.80
2019-01-26T07:41:26.472Z,106.60
2019-01-26T07:43:58.391Z,103.00
2019-01-26T07:46:29.993Z,113.20
2019-01-26T07:49:02.596Z,109.40
2019-01-26T07:51:33.897Z,112.60
2019-01-26T07:54:05.601Z,98.80
2019-01-26T07:56:37.342Z,102.00
2019-01-26T07:59:08.726Z,101.00
2019-01-26T08:01:40.687Z,108.20
2019-01-26T08:04:12.806Z,99.40
2019-01-26T08:06:44.216Z,87.60
2019-01-26T08:09:15.826Z,101.80
2019-01-26T08:11:47.642Z,103.00
2019-01-26T08:14:19.399Z,97.00
2019-01-26T08:16:51.003Z,104.20
2019-01-26T08:19:22.906Z,95.40
2019-01-26T08:21:54.277Z,97.20
2019-01-26T08:24:25.648Z,104.80
2019-01-26T08:26:56.964Z,95.40
2019-01-26T08:29:28.412Z,103.00
2019-01-26T08:32:00.142Z,97.40
2019-01-26T08:34:32.007Z,94.80
2019-01-26T08:37:03.401Z,99.20
2019-01-26T08:39:35.053Z,102.60
2019-01-26T08:42:06.885Z,99.80
2019-01-26T08:44:38.416Z,98.00
2019-01-26T08:47:09.890Z,106.40
2019-01-26T08:49:41.702Z,91.20
2019-01-26T08:52:13.305Z,92.60
2019-01-26T08:54:45.103Z,89.40
2019-01-26T08:57:16.758Z,91.20
2019-01-26T08:59:48.427Z,94.40
2019-01-26T09:02:47.293Z,85.40
2019-01-26T09:05:19.262Z,91.80
2019-01-26T09:07:52.144Z,85.60
2019-01-26T09:10:23.696Z,91.00
2019-01-26T09:12:55.105Z,86.00
2019-01-26T09:15:26.804Z,85.20
2019-01-26T09:17:58.320Z,81.00
2019-01-26T09:20:30.482Z,86.00
2019-01-26T09:23:01.832Z,90.00
2019-01-26T09:25:33.650Z,88.20
2019-01-26T09:28:05.099Z,88.00
2019-01-26T09:30:36.678Z,94.40
2019-01-26T09:33:08.436Z,92.20
2019-01-26T09:35:39.960Z,86.80
2019-01-26T09:38:11.603Z,90.40
2019-01-26T09:40:43.158Z,85.80
2019-01-26T09:43:14.749Z,85.00
2019-01-26T09:45:46.499Z,86.00
2019-01-26T09:48:18.056Z,90.40
2019-01-26T09:50:51.593Z,83.80
2019-01-26T09:53:23.082Z,82.80
2019-01-26T09:55:55.065Z,86.80
2019-01-26T09:58:26.418Z,86.00
2019-01-26T10:00:58.031Z,71.20
2019-01-26T10:03:29.468Z,70.80
2019-01-26T10:06:01.168Z,76.40
2019-01-26T10:08:32.726Z,82.40
2019-01-26T10:11:04.523Z,83.00
2019-01-26T10:13:36.117Z,77.40
2019-01-26T10:16:08.000Z,78.40
2019-01-26T10:18:39.585Z,85.20
2019-01-26T10:21:11.841Z,82.80
2019-01-26T10:23:43.260Z,83.00
2019-01-26T10:26:14.727Z,85.20
2019-01-26T10:28:46.411Z,70.40
2019-01-26T10:31:18.381Z,76.80
2019-01-26T10:33:49.740Z,82.20
2019-01-26T10:36:29.049Z,71.40
2019-01-26T10:39:04.155Z,74.00
2019-01-26T10:42:07.549Z,77.80
2019-01-26T10:44:39.528Z,74.40
2019-01-26T10:47:17.321Z,77.60
2019-01-26T10:49:48.869Z,79.60
2019-01-26T10:52:20.315Z,72.00
2019-01-26T10:54:51.824Z,69.80
2019-01-26T10:57:23.194Z,69.40
2019-01-26T10:59:54.697Z,74.20
2019-01-26T11:02:25.996Z,70.20
2019-01-26T11:04:57.383Z,79.20
2019-01-26T11:07:29.109Z,77.20
2019-01-26T11:10:00.942Z,82.40
2019-01-26T11:12:32.494Z,81.60
2019-01-26T11:15:03.707Z,79.60
2019-01-26T11:17:36.005Z,76.60
2019-01-26T11:20:08.096Z,82.00
2019-01-26T11:22:39.829Z,78.00
2019-01-26T11:25:11.689Z,78.00
2019-01-26T11:27:43.456Z,85.40
2019-01-26T11:30:15.101Z,86.20
2019-01-26T11:32:46.749Z,74.00
2019-01-26T11:35:18.149Z,78.80
2019-01-26T11:37:53.315Z,82.00
2019-01-26T11:40:25.488Z,85.60
2019-01-26T11:42:56.713Z,83.40
2019-01-26T11:45:50.377Z,79.20
2019-01-26T11:48:24.676Z,84.80
2019-01-26T11:51:01.091Z,86.40
2019-01-26T11:53:32.300Z,77.20
2019-01-26T11:56:25.522Z,79.80
2019-01-26T11:58:57.072Z,85.60
2019-01-26T12:01:36.053Z,93.00
2019-01-26T12:04:29.463Z,85.60
2019-01-26T12:07:15.519Z,88.20
2019-01-26T12:09:47.050Z,96.00
2019-01-26T12:12:18.663Z,98.60
2019-01-26T12:14:50.598Z,95.60
2019-01-26T12:17:21.825Z,95.80
2019-01-26T12:19:53.230Z,145.60
2019-01-26T12:22:24.630Z,193.00
2019-01-26T12:24:56.262Z,235.00
2019-01-26T12:27:27.662Z,234.25
2019-01-26T12:29:59.138Z,215.25
2019-01-26T12:32:30.442Z,203.50
2019-01-26T12:35:01.968Z,150.40
2019-01-26T12:37:33.221Z,148.00
2019-01-26T12:40:05.199Z,155.20
2019-01-26T12:42:36.872Z,147.60
2019-01-26T12:45:12.270Z,152.20
2019-01-26T12:47:43.555Z,152.60
2019-01-26T12:50:15.384Z,148.40
2019-01-26T12:52:46.943Z,120.20
2019-01-26T12:55:19.050Z,142.60
2019-01-26T12:57:50.273Z,121.00
2019-01-26T13:00:22.286Z,134.60
2019-01-26T13:02:53.450Z,136.60
2019-01-26T13:05:25.076Z,147.60
2019-01-26T13:07:56.228Z,133.80
2019-01-26T13:10:34.298Z,130.40
2019-01-26T13:13:06.357Z,137.80
2019-01-26T13:15:38.163Z,124.60
2019-01-26T13:18:09.555Z,125.40
2019-01-26T13:20:41.437Z,121.20
2019-01-26T13:23:12.659Z,127.20
2019-01-26T13:25:44.634Z,128.40
2019-01-26T13:28:16.316Z,131.20
2019-01-26T13:30:47.852Z,124.80
2019-01-26T13:33:19.763Z,130.20
2019-01-26T13:35:51.881Z,137.40
2019-01-26T13:38:23.617Z,150.20
2019-01-26T13:40:55.284Z,144.80
2019-01-26T13:43:26.620Z,149.60
2019-01-26T13:45:58.388Z,151.80
2019-01-26T13:48:29.871Z,149.40
2019-01-26T13:51:01.393Z,214.00
2019-01-26T13:53:32.736Z,269.00
2019-01-26T13:56:04.109Z,249.25
2019-01-26T13:58:35.418Z,251.25
2019-01-26T14:01:06.756Z,217.75
2019-01-26T14:03:37.984Z,186.50
2019-01-26T14:06:09.479Z,229.75
2019-01-26T14:08:40.877Z,212.75
2019-01-26T14:11:12.356Z,194.50
2019-01-26T14:13:43.559Z,193.00
2019-01-26T14:16:15.983Z,180.20
2019-01-26T14:18:47.092Z,166.40
2019-01-26T14:21:18.942Z,158.80
2019-01-26T14:23:50.210Z,169.60
2019-01-26T14:26:21.719Z,159.80
2019-01-26T14:28:53.283Z,175.20
2019-01-26T14:31:24.912Z,168.60
2019-01-26T14:33:56.286Z,177.50
2019-01-26T14:36:27.895Z,223.00
2019-01-26T14:38:59.385Z,214.50
2019-01-26T14:41:30.835Z,196.00
2019-01-26T14:44:01.875Z,161.75
2019-01-26T14:46:34.306Z,153.40
2019-01-26T14:49:05.579Z,139.80
2019-01-26T14:51:37.232Z,137.20
2019-01-26T14:54:08.917Z,138.20
2019-01-26T14:56:40.596Z,133.80
2019-01-26T14:59:11.931Z,145.80
2019-01-26T15:01:43.323Z,170.60
2019-01-26T15:04:14.694Z,173.00
2019-01-26T15:06:46.189Z,179.00
2019-01-26T15:09:17.585Z,176.80
2019-01-26T15:11:48.900Z,158.00
2019-01-26T15:14:20.205Z,161.40
2019-01-26T15:16:51.668Z,177.00
2019-01-26T15:19:23.321Z,162.60
2019-01-26T15:21:54.905Z,160.20
2019-01-26T15:24:26.689Z,156.40
2019-01-26T15:26:58.203Z,157.80
2019-01-26T15:29:29.937Z,157.40
2019-01-26T15:32:01.336Z,168.00
2019-01-26T15:34:33.040Z,144.60
2019-01-26T15:37:04.707Z,149.00
2019-01-26T15:39:36.085Z,166.80
2019-01-26T15:42:07.639Z,167.00
2019-01-26T15:44:39.524Z,144.80
2019-01-26T15:47:11.614Z,151.20
2019-01-26T15:49:43.325Z,148.80
2019-01-26T15:52:14.883Z,166.40
2019-01-26T15:54:46.623Z,148.00
2019-01-26T15:57:18.623Z,154.00
2019-01-26T15:59:53.569Z,166.20
2019-01-26T16:02:23.912Z,159.60
2019-01-26T16:04:55.650Z,155.60
2019-01-26T16:07:27.075Z,154.00
2019-01-26T16:09:58.277Z,153.00
2019-01-26T16:12:29.607Z,176.80
2019-01-26T16:15:00.826Z,178.75
2019-01-26T16:17:33.048Z,190.60
2019-01-26T16:20:05.187Z,171.80
2019-01-26T16:22:37.073Z,148.80
2019-01-26T16:25:08.640Z,172.20
2019-01-26T16:27:40.422Z,149.40
2019-01-26T16:30:15.411Z,159.60
2019-01-26T16:32:47.666Z,164.80
2019-01-26T16:35:19.501Z,180.40
2019-01-26T16:37:51.030Z,170.40
2019-01-26T16:40:24.784Z,161.80
2019-01-26T16:42:56.379Z,136.80
2019-01-26T16:45:29.928Z,158.80
2019-01-26T16:48:02.007Z,156.40
2019-01-26T16:50:33.735Z,157.60
2019-01-26T16:53:05.642Z,154.80
2019-01-26T16:55:37.051Z,141.40
2019-01-26T16:58:08.875Z,144.40
2019-01-26T17:00:45.202Z,153.80
2019-01-26T17:03:17.158Z,142.40
2019-01-26T17:05:48.580Z,144.40
2019-01-26T17:08:20.044Z,155.40
2019-01-26T17:10:55.905Z,142.80
2019-01-26T17:13:26.868Z,148.60
2019-01-26T17:15:58.324Z,153.00
2019-01-26T17:18:30.114Z,160.20
2019-01-26T17:21:01.352Z,159.80
2019-01-26T17:23:32.962Z,136.40
2019-01-26T17:26:04.225Z,171.60
2019-01-26T17:28:36.259Z,127.00
2019-01-26T17:31:07.438Z,177.60
2019-01-26T17:33:39.074Z,139.40
2019-01-26T17:36:10.482Z,176.80
2019-01-26T17:38:42.115Z,146.60
2019-01-26T17:41:13.705Z,152.20
2019-01-26T17:43:45.486Z,159.20
2019-01-26T17:46:16.837Z,162.00
2019-01-26T17:48:48.824Z,145.00
2019-01-26T17:51:21.127Z,164.20
2019-01-26T17:53:52.708Z,157.80
2019-01-26T17:56:24.166Z,149.80
2019-01-26T17:58:55.599Z,161.40
2019-01-26T18:01:26.945Z,150.60
2019-01-26T18:03:58.205Z,142.80
2019-01-26T18:06:29.464Z,178.00
2019-01-26T18:09:00.837Z,141.60
2019-01-26T18:11:33.962Z,151.60
2019-01-26T18:14:05.449Z,138.40
2019-01-26T18:16:36.885Z,151.00
2019-01-26T18:19:08.929Z,133.60
2019-01-26T18:21:41.002Z,134.60
2019-01-26T18:24:12.751Z,134.00
2019-01-26T18:26:45.427Z,139.80
2019-01-26T18:29:16.759Z,143.00
2019-01-26T18:31:48.094Z,149.60
2019-01-26T18:34:19.599Z,146.40
2019-01-26T18:36:50.793Z,150.00
2019-01-26T18:39:22.138Z,138.00
2019-01-26T18:41:53.473Z,138.40
2019-01-26T18:44:25.379Z,141.60
2019-01-26T18:46:56.735Z,152.60
2019-01-26T18:49:28.318Z,135.00
2019-01-26T18:51:59.472Z,141.00
2019-01-26T18:54:31.002Z,155.00
2019-01-26T18:57:02.793Z,136.00
2019-01-26T18:59:34.490Z,140.80
2019-01-26T19:02:06.484Z,155.60
2019-01-26T19:04:46.005Z,165.00
2019-01-26T19:07:17.746Z,169.50
2019-01-26T19:09:52.858Z,189.25
2019-01-26T19:12:24.211Z,214.25
2019-01-26T19:14:55.459Z,190.00
2019-01-26T19:17:26.622Z,167.40
2019-01-26T19:19:58.276Z,143.80
2019-01-26T19:22:29.582Z,148.00
2019-01-26T19:25:01.396Z,135.20
2019-01-26T19:27:32.866Z,133.20
2019-01-26T19:30:04.959Z,131.40
2019-01-26T19:32:36.867Z,116.00
2019-01-26T19:35:08.678Z,139.00
2019-01-26T19:37:40.098Z,134.80
2019-01-26T19:40:22.810Z,137.80
2019-01-26T19:42:54.232Z,120.60
2019-01-26T19:45:25.935Z,137.20
2019-01-26T19:47:57.661Z,129.60
2019-01-26T19:50:29.504Z,137.00
2019-01-26T19:53:00.879Z,130.60
2019-01-26T19:55:32.261Z,142.40
2019-01-26T19:58:03.806Z,135.40
2019-01-26T20:00:35.340Z,140.80
2019-01-26T20:03:07.077Z,128.00
2019-01-26T20:05:38.581Z,122.20
2019-01-26T20:08:10.300Z,133.40
2019-01-26T20:10:41.698Z,135.40
2019-01-26T20:13:13.086Z,138.60
2019-01-26T20:15:44.682Z,144.80
2019-01-26T20:18:15.986Z,144.80
2019-01-26T20:20:47.716Z,147.80
2019-01-26T20:23:19.094Z,130.40
2019-01-26T20:25:50.948Z,123.20
2019-01-26T20:28:22.212Z,135.40
2019-01-26T20:30:53.840Z,140.60
2019-01-26T20:33:25.117Z,120.60
2019-01-26T20:35:56.620Z,135.20
2019-01-26T20:38:28.404Z,132.20
2019-01-26T20:40:59.833Z,117.20
2019-01-26T20:43:31.670Z,136.00
2019-01-26T20:46:03.315Z,153.20
2019-01-26T20:48:35.765Z,136.20
2019-01-26T20:51:07.701Z,134.00
2019-01-26T20:53:39.259Z,132.20
2019-01-26T20:56:11.052Z,143.00
2019-01-26T20:58:42.266Z,135.60
2019-01-26T21:01:13.689Z,148.80
2019-01-26T21:03:45.181Z,134.60
2019-01-26T21:06:16.493Z,149.20
2019-01-26T21:08:47.805Z,139.20
2019-01-26T21:11:19.305Z,138.60
2019-01-26T21:13:50.723Z,136.80
2019-01-26T21:16:23.190Z,139.00
2019-01-26T21:18:54.641Z,153.40
2019-01-26T21:21:31.802Z,146.20
2019-01-26T21:23:59.252Z,142.20
2019-01-26T21:26:31.043Z,138.20
2019-01-26T21:29:02.431Z,137.00
2019-01-26T21:31:34.035Z,147.40
2019-01-26T21:34:05.270Z,121.20
2019-01-26T21:36:37.014Z,142.50
2019-01-26T21:39:10.423Z,132.20
2019-01-26T21:41:42.309Z,146.80
2019-01-26T21:44:13.582Z,148.20
2019-01-26T21:46:45.204Z,136.00
2019-01-26T21:49:16.403Z,144.20
2019-01-26T21:51:48.068Z,139.80
2019-01-26T21:54:19.650Z,121.80
2019-01-26T21:56:52.216Z,157.60
2019-01-26T21:59:23.384Z,130.40
2019-01-26T22:01:55.117Z,141.20
2019-01-26T22:04:26.678Z,143.20
2019-01-26T22:06:58.636Z,150.00
2019-01-26T22:09:30.231Z,136.40
2019-01-26T22:12:01.539Z,140.00
2019-01-26T22:14:32.867Z,136.00
2019-01-26T22:17:04.036Z,136.60
2019-01-26T22:19:35.355Z,153.00
2019-01-26T22:22:06.574Z,152.20
2019-01-26T22:24:38.049Z,144.80
2019-01-26T22:27:09.657Z,150.40
2019-01-26T22:29:41.345Z,139.60
2019-01-26T22:32:12.978Z,132.00
2019-01-26T22:34:44.258Z,137.80
2019-01-26T22:37:16.028Z,153.60
2019-01-26T22:39:47.618Z,147.40
2019-01-26T22:42:19.064Z,137.20
2019-01-26T22:44:50.347Z,132.60
2019-01-26T22:47:22.210Z,140.80
2019-01-26T22:49:54.149Z,143.20
2019-01-26T22:52:25.592Z,148.20
2019-01-26T22:54:57.058Z,130.60
2019-01-26T22:57:29.065Z,136.40
2019-01-26T23:00:00.544Z,141.20
2019-01-26T23:02:31.748Z,152.20
2019-01-26T23:05:28.792Z,144.00
2019-01-26T23:08:11.069Z,144.40
2019-01-26T23:11:18.999Z,143.00
2019-01-26T23:14:21.519Z,143.20
2019-01-26T23:17:22.256Z,142.60
2019-01-26T23:20:34.315Z,140.40
2019-01-26T23:23:41.779Z,151.60
2019-01-26T23:26:27.466Z,156.20
2019-01-26T23:29:13.206Z,160.80
2019-01-26T23:31:44.849Z,168.00
2019-01-26T23:34:16.298Z,160.40
2019-01-26T23:36:47.643Z,154.40
2019-01-26T23:39:20.321Z,162.40
2019-01-26T23:41:51.822Z,172.20
2019-01-26T23:44:22.986Z,157.60
2019-01-26T23:46:54.502Z,162.00
2019-01-26T23:49:25.878Z,155.00
2019-01-26T23:51:57.447Z,169.00
2019-01-26T23:54:29.160Z,167.60
2019-01-26T23:57:00.739Z,165.60
2019-01-26T23:59:31.929Z,141.20
